sensor_id;sensor_type;location;lat;lon;timestamp;temperature;humidity
21282;DHT22;10800;53.096;18.328;2024-01-10T00:02:25;-5.30;99.90
21282;DHT22;10800;53.096;18.328;2024-01-10T00:07:32;-5.20;99.90
21282;DHT22;10800;53.096;18.328;2024-01-10T00:12:40;-5.20;99.90
21282;DHT22;10800;53.096;18.328;2024-01-10T00:17:47;-5.20;99.90
21282;DHT22;10800;53.096;18.328;2024-01-10T00:22:53;-5.10;99.90
21282;DHT22;10800;53.096;18.328;2024-01-10T00:27:59;-5.10;99.90
21282;DHT22;10800;53.096;18.328;2024-01-10T00:33:04;-5.00;99.90
21282;DHT22;10800;53.096;18.328;2024-01-10T00:38:13;-5.00;99.90
21282;DHT22;10800;53.096;18.328;2024-01-10T00:43:19;-4.90;99.90
21282;DHT22;10800;53.096;18.328;2024-01-10T00:48:24;-4.90;99.90
21282;DHT22;10800;53.096;18.328;2024-01-10T00:53:30;-4.90;99.90
21282;DHT22;10800;53.096;18.328;2024-01-10T00:58:36;-4.80;99.90
21282;DHT22;10800;53.096;18.328;2024-01-10T01:03:41;-4.80;99.90
21282;DHT22;10800;53.096;18.328;2024-01-10T01:08:47;-4.70;99.90
21282;DHT22;10800;53.096;18.328;2024-01-10T01:13:53;-4.60;99.90
21282;DHT22;10800;53.096;18.328;2024-01-10T01:18:59;-4.60;99.90
21282;DHT22;10800;53.096;18.328;2024-01-10T01:24:05;-4.60;99.90
21282;DHT22;10800;53.096;18.328;2024-01-10T01:29:10;-4.50;99.90
21282;DHT22;10800;53.096;18.328;2024-01-10T01:34:16;-4.50;99.90
21282;DHT22;10800;53.096;18.328;2024-01-10T01:39:23;-4.40;99.90
21282;DHT22;10800;53.096;18.328;2024-01-10T01:44:29;-4.40;99.90
21282;DHT22;10800;53.096;18.328;2024-01-10T01:49:36;-4.30;99.90
21282;DHT22;10800;53.096;18.328;2024-01-10T01:54:43;-4.30;99.90
21282;DHT22;10800;53.096;18.328;2024-01-10T01:59:48;-4.30;99.90
21282;DHT22;10800;53.096;18.328;2024-01-10T02:04:55;-4.20;99.90
21282;DHT22;10800;53.096;18.328;2024-01-10T02:10:01;-4.20;99.90
21282;DHT22;10800;53.096;18.328;2024-01-10T02:15:06;-4.10;99.90
21282;DHT22;10800;53.096;18.328;2024-01-10T02:20:13;-4.00;99.90
21282;DHT22;10800;53.096;18.328;2024-01-10T02:25:21;-4.00;99.90
21282;DHT22;10800;53.096;18.328;2024-01-10T02:30:27;-3.90;99.90
21282;DHT22;10800;53.096;18.328;2024-01-10T02:35:32;-3.80;99.90
21282;DHT22;10800;53.096;18.328;2024-01-10T02:40:38;-3.80;99.90
21282;DHT22;10800;53.096;18.328;2024-01-10T02:45:44;-3.80;99.90
21282;DHT22;10800;53.096;18.328;2024-01-10T02:50:49;-3.80;99.90
21282;DHT22;10800;53.096;18.328;2024-01-10T02:55:55;-3.70;99.90
21282;DHT22;10800;53.096;18.328;2024-01-10T03:01:00;-3.70;99.90
21282;DHT22;10800;53.096;18.328;2024-01-10T03:06:06;-3.70;99.90
21282;DHT22;10800;53.096;18.328;2024-01-10T03:11:12;-3.70;99.90
21282;DHT22;10800;53.096;18.328;2024-01-10T03:16:18;-3.70;99.90
21282;DHT22;10800;53.096;18.328;2024-01-10T03:21:23;-3.70;99.90
21282;DHT22;10800;53.096;18.328;2024-01-10T03:26:30;-3.60;99.90
21282;DHT22;10800;53.096;18.328;2024-01-10T03:31:36;-3.60;99.90
21282;DHT22;10800;53.096;18.328;2024-01-10T03:36:42;-3.60;99.90
21282;DHT22;10800;53.096;18.328;2024-01-10T03:41:48;-3.60;99.90
21282;DHT22;10800;53.096;18.328;2024-01-10T03:46:53;-3.50;99.90
21282;DHT22;10800;53.096;18.328;2024-01-10T03:51:59;-3.50;99.90
21282;DHT22;10800;53.096;18.328;2024-01-10T03:57:05;-3.50;99.90
21282;DHT22;10800;53.096;18.328;2024-01-10T04:02:10;-3.50;99.90
21282;DHT22;10800;53.096;18.328;2024-01-10T04:07:16;-3.40;99.90
21282;DHT22;10800;53.096;18.328;2024-01-10T04:12:21;-3.40;99.90
21282;DHT22;10800;53.096;18.328;2024-01-10T04:17:27;-3.30;99.90
21282;DHT22;10800;53.096;18.328;2024-01-10T04:22:32;-3.30;99.90
21282;DHT22;10800;53.096;18.328;2024-01-10T04:27:38;-3.30;99.90
21282;DHT22;10800;53.096;18.328;2024-01-10T04:32:44;-3.30;99.90
21282;DHT22;10800;53.096;18.328;2024-01-10T04:37:49;-3.30;99.90
21282;DHT22;10800;53.096;18.328;2024-01-10T04:42:55;-3.40;99.90
21282;DHT22;10800;53.096;18.328;2024-01-10T04:48:01;-3.40;99.90
21282;DHT22;10800;53.096;18.328;2024-01-10T04:53:06;-3.40;99.90
21282;DHT22;10800;53.096;18.328;2024-01-10T04:58:12;-3.50;99.90
21282;DHT22;10800;53.096;18.328;2024-01-10T05:03:18;-3.50;99.90
21282;DHT22;10800;53.096;18.328;2024-01-10T05:08:27;-3.50;99.90
21282;DHT22;10800;53.096;18.328;2024-01-10T05:13:36;-3.50;99.90
21282;DHT22;10800;53.096;18.328;2024-01-10T05:18:43;-3.50;99.90
21282;DHT22;10800;53.096;18.328;2024-01-10T05:23:53;-3.60;99.90
21282;DHT22;10800;53.096;18.328;2024-01-10T05:29:02;-3.60;99.90
21282;DHT22;10800;53.096;18.328;2024-01-10T05:34:08;-3.50;99.90
21282;DHT22;10800;53.096;18.328;2024-01-10T05:39:14;-3.60;99.90
21282;DHT22;10800;53.096;18.328;2024-01-10T05:44:22;-3.60;99.90
21282;DHT22;10800;53.096;18.328;2024-01-10T05:49:30;-3.60;99.90
21282;DHT22;10800;53.096;18.328;2024-01-10T05:54:44;-3.60;99.90
21282;DHT22;10800;53.096;18.328;2024-01-10T05:59:52;-3.60;99.90
21282;DHT22;10800;53.096;18.328;2024-01-10T06:04:59;-3.60;99.90
21282;DHT22;10800;53.096;18.328;2024-01-10T06:10:07;-3.60;99.90
21282;DHT22;10800;53.096;18.328;2024-01-10T06:15:13;-3.50;99.90
21282;DHT22;10800;53.096;18.328;2024-01-10T06:20:19;-3.50;99.90
21282;DHT22;10800;53.096;18.328;2024-01-10T06:25:24;-3.50;99.90
21282;DHT22;10800;53.096;18.328;2024-01-10T06:30:33;-3.50;99.90
21282;DHT22;10800;53.096;18.328;2024-01-10T06:35:41;-3.40;99.90
21282;DHT22;10800;53.096;18.328;2024-01-10T06:40:50;-3.40;99.90
21282;DHT22;10800;53.096;18.328;2024-01-10T06:45:55;-3.40;99.90
21282;DHT22;10800;53.096;18.328;2024-01-10T06:51:01;-3.40;99.90
21282;DHT22;10800;53.096;18.328;2024-01-10T06:56:09;-3.40;99.90
21282;DHT22;10800;53.096;18.328;2024-01-10T07:01:19;-3.30;99.90
21282;DHT22;10800;53.096;18.328;2024-01-10T07:06:29;-3.40;99.90
21282;DHT22;10800;53.096;18.328;2024-01-10T07:11:37;-3.30;99.90
21282;DHT22;10800;53.096;18.328;2024-01-10T07:16:44;-3.30;99.90
21282;DHT22;10800;53.096;18.328;2024-01-10T07:21:52;-3.20;99.90
21282;DHT22;10800;53.096;18.328;2024-01-10T07:26:59;-3.20;99.90
21282;DHT22;10800;53.096;18.328;2024-01-10T07:32:05;-3.20;99.90
21282;DHT22;10800;53.096;18.328;2024-01-10T07:37:13;-3.20;99.90
21282;DHT22;10800;53.096;18.328;2024-01-10T07:42:21;-3.10;99.90
21282;DHT22;10800;53.096;18.328;2024-01-10T07:47:29;-3.10;99.90
21282;DHT22;10800;53.096;18.328;2024-01-10T07:52:36;-3.00;99.90
21282;DHT22;10800;53.096;18.328;2024-01-10T07:57:42;-3.00;99.90
21282;DHT22;10800;53.096;18.328;2024-01-10T08:02:47;-3.00;99.90
21282;DHT22;10800;53.096;18.328;2024-01-10T08:07:58;-2.90;99.90
21282;DHT22;10800;53.096;18.328;2024-01-10T08:13:09;-2.80;99.90
21282;DHT22;10800;53.096;18.328;2024-01-10T08:18:15;-2.80;99.90
21282;DHT22;10800;53.096;18.328;2024-01-10T08:23:21;-2.70;99.90
21282;DHT22;10800;53.096;18.328;2024-01-10T08:28:27;-2.70;99.90
21282;DHT22;10800;53.096;18.328;2024-01-10T08:33:32;-2.70;99.90
21282;DHT22;10800;53.096;18.328;2024-01-10T08:38:38;-2.60;99.90
21282;DHT22;10800;53.096;18.328;2024-01-10T08:43:46;-2.60;99.90
21282;DHT22;10800;53.096;18.328;2024-01-10T08:48:52;-2.50;99.90
21282;DHT22;10800;53.096;18.328;2024-01-10T08:53:58;-2.50;99.90
21282;DHT22;10800;53.096;18.328;2024-01-10T08:59:03;-2.40;99.90
21282;DHT22;10800;53.096;18.328;2024-01-10T09:04:10;-2.40;99.90
21282;DHT22;10800;53.096;18.328;2024-01-10T09:09:16;-2.30;99.90
21282;DHT22;10800;53.096;18.328;2024-01-10T09:14:25;-2.30;99.90
21282;DHT22;10800;53.096;18.328;2024-01-10T09:19:31;-2.20;99.90
21282;DHT22;10800;53.096;18.328;2024-01-10T09:24:37;-2.10;99.90
21282;DHT22;10800;53.096;18.328;2024-01-10T09:29:44;-2.00;99.90
21282;DHT22;10800;53.096;18.328;2024-01-10T09:34:50;-2.00;99.90
21282;DHT22;10800;53.096;18.328;2024-01-10T09:39:56;-1.90;99.90
21282;DHT22;10800;53.096;18.328;2024-01-10T09:45:03;-1.90;99.90
21282;DHT22;10800;53.096;18.328;2024-01-10T09:50:09;-1.80;99.90
21282;DHT22;10800;53.096;18.328;2024-01-10T09:55:16;-1.70;99.90
21282;DHT22;10800;53.096;18.328;2024-01-10T10:00:24;-1.70;99.90
21282;DHT22;10800;53.096;18.328;2024-01-10T10:05:32;-1.60;99.90
21282;DHT22;10800;53.096;18.328;2024-01-10T10:10:44;-1.60;99.90
21282;DHT22;10800;53.096;18.328;2024-01-10T10:16:04;-1.50;99.90
21282;DHT22;10800;53.096;18.328;2024-01-10T10:21:14;-1.40;99.90
21282;DHT22;10800;53.096;18.328;2024-01-10T10:26:21;-1.40;99.90
21282;DHT22;10800;53.096;18.328;2024-01-10T10:31:28;-1.50;99.90
21282;DHT22;10800;53.096;18.328;2024-01-10T10:36:35;-1.40;99.90
21282;DHT22;10800;53.096;18.328;2024-01-10T10:41:41;-1.40;99.90
21282;DHT22;10800;53.096;18.328;2024-01-10T10:46:52;-1.40;99.90
21282;DHT22;10800;53.096;18.328;2024-01-10T10:52:00;-1.40;99.90
21282;DHT22;10800;53.096;18.328;2024-01-10T10:57:08;-1.40;99.90
21282;DHT22;10800;53.096;18.328;2024-01-10T11:02:16;-1.40;99.90
21282;DHT22;10800;53.096;18.328;2024-01-10T11:07:23;-1.40;99.90
21282;DHT22;10800;53.096;18.328;2024-01-10T11:28:32;-1.30;99.90
21282;DHT22;10800;53.096;18.328;2024-01-10T11:33:39;-1.30;99.90
21282;DHT22;10800;53.096;18.328;2024-01-10T11:49:23;-1.40;99.90
21282;DHT22;10800;53.096;18.328;2024-01-10T11:59:47;-1.50;99.90
21282;DHT22;10800;53.096;18.328;2024-01-10T12:04:54;-1.40;99.90
21282;DHT22;10800;53.096;18.328;2024-01-10T12:10:05;-1.40;99.90
21282;DHT22;10800;53.096;18.328;2024-01-10T12:15:13;-1.50;99.90
21282;DHT22;10800;53.096;18.328;2024-01-10T12:20:19;-1.50;99.90
21282;DHT22;10800;53.096;18.328;2024-01-10T12:25:26;-1.50;99.90
21282;DHT22;10800;53.096;18.328;2024-01-10T12:30:32;-1.50;99.90
21282;DHT22;10800;53.096;18.328;2024-01-10T12:35:38;-1.60;99.90
21282;DHT22;10800;53.096;18.328;2024-01-10T12:40:50;-1.60;99.90
21282;DHT22;10800;53.096;18.328;2024-01-10T12:51:13;-1.60;99.90
21282;DHT22;10800;53.096;18.328;2024-01-10T12:56:18;-1.60;99.90
21282;DHT22;10800;53.096;18.328;2024-01-10T13:01:25;-1.60;99.90
21282;DHT22;10800;53.096;18.328;2024-01-10T13:06:31;-1.70;99.90
21282;DHT22;10800;53.096;18.328;2024-01-10T13:11:38;-1.70;99.90
21282;DHT22;10800;53.096;18.328;2024-01-10T13:16:44;-1.80;99.90
21282;DHT22;10800;53.096;18.328;2024-01-10T13:21:57;-1.80;99.90
21282;DHT22;10800;53.096;18.328;2024-01-10T13:27:03;-1.80;99.90
21282;DHT22;10800;53.096;18.328;2024-01-10T13:32:09;-1.90;99.90
21282;DHT22;10800;53.096;18.328;2024-01-10T13:37:15;-1.90;99.90
21282;DHT22;10800;53.096;18.328;2024-01-10T13:42:21;-1.90;99.90
21282;DHT22;10800;53.096;18.328;2024-01-10T13:47:28;-2.00;99.90
21282;DHT22;10800;53.096;18.328;2024-01-10T13:52:41;-2.00;99.90
21282;DHT22;10800;53.096;18.328;2024-01-10T13:57:48;-2.00;99.90
21282;DHT22;10800;53.096;18.328;2024-01-10T14:02:54;-2.10;99.90
21282;DHT22;10800;53.096;18.328;2024-01-10T14:08:02;-2.10;99.90
21282;DHT22;10800;53.096;18.328;2024-01-10T14:13:07;-2.10;99.90
21282;DHT22;10800;53.096;18.328;2024-01-10T14:18:13;-2.20;99.90
21282;DHT22;10800;53.096;18.328;2024-01-10T14:23:20;-2.30;99.90
21282;DHT22;10800;53.096;18.328;2024-01-10T14:28:28;-2.30;99.90
21282;DHT22;10800;53.096;18.328;2024-01-10T14:33:34;-2.30;99.90
21282;DHT22;10800;53.096;18.328;2024-01-10T14:38:41;-2.30;99.90
21282;DHT22;10800;53.096;18.328;2024-01-10T14:43:49;-2.30;99.90
21282;DHT22;10800;53.096;18.328;2024-01-10T14:49:05;-2.40;99.90
21282;DHT22;10800;53.096;18.328;2024-01-10T14:54:13;-2.40;99.90
21282;DHT22;10800;53.096;18.328;2024-01-10T14:59:19;-2.50;99.90
21282;DHT22;10800;53.096;18.328;2024-01-10T15:04:28;-2.50;99.90
21282;DHT22;10800;53.096;18.328;2024-01-10T15:09:35;-2.60;99.90
21282;DHT22;10800;53.096;18.328;2024-01-10T15:14:46;-2.50;99.90
21282;DHT22;10800;53.096;18.328;2024-01-10T15:19:53;-2.50;99.90
21282;DHT22;10800;53.096;18.328;2024-01-10T15:25:02;-2.50;99.90
21282;DHT22;10800;53.096;18.328;2024-01-10T15:30:18;-2.60;99.90
21282;DHT22;10800;53.096;18.328;2024-01-10T15:35:28;-2.60;99.90
21282;DHT22;10800;53.096;18.328;2024-01-10T15:40:43;-2.60;99.90
21282;DHT22;10800;53.096;18.328;2024-01-10T15:45:51;-2.60;99.90
21282;DHT22;10800;53.096;18.328;2024-01-10T15:50:59;-2.60;99.90
21282;DHT22;10800;53.096;18.328;2024-01-10T15:56:08;-2.60;99.90
21282;DHT22;10800;53.096;18.328;2024-01-10T16:01:22;-2.60;99.90
21282;DHT22;10800;53.096;18.328;2024-01-10T16:06:28;-2.60;99.90
21282;DHT22;10800;53.096;18.328;2024-01-10T16:11:43;-2.70;99.90
21282;DHT22;10800;53.096;18.328;2024-01-10T16:16:49;-2.70;99.90
21282;DHT22;10800;53.096;18.328;2024-01-10T16:21:55;-2.70;99.90
21282;DHT22;10800;53.096;18.328;2024-01-10T16:27:00;-2.70;99.90
21282;DHT22;10800;53.096;18.328;2024-01-10T16:32:06;-2.70;99.90
21282;DHT22;10800;53.096;18.328;2024-01-10T16:37:13;-2.70;99.90
21282;DHT22;10800;53.096;18.328;2024-01-10T16:42:19;-2.70;99.90
21282;DHT22;10800;53.096;18.328;2024-01-10T16:47:24;-2.70;99.90
21282;DHT22;10800;53.096;18.328;2024-01-10T16:52:30;-2.70;99.90
21282;DHT22;10800;53.096;18.328;2024-01-10T16:57:36;-2.60;99.90
21282;DHT22;10800;53.096;18.328;2024-01-10T17:02:42;-2.70;99.90
21282;DHT22;10800;53.096;18.328;2024-01-10T17:07:48;-2.60;99.90
21282;DHT22;10800;53.096;18.328;2024-01-10T17:12:53;-2.70;99.90
21282;DHT22;10800;53.096;18.328;2024-01-10T17:18:00;-2.70;99.90
21282;DHT22;10800;53.096;18.328;2024-01-10T17:23:06;-2.70;99.90
21282;DHT22;10800;53.096;18.328;2024-01-10T17:28:12;-2.80;99.90
21282;DHT22;10800;53.096;18.328;2024-01-10T17:33:17;-2.80;99.90
21282;DHT22;10800;53.096;18.328;2024-01-10T17:38:25;-2.80;99.90
21282;DHT22;10800;53.096;18.328;2024-01-10T17:43:31;-2.80;99.90
21282;DHT22;10800;53.096;18.328;2024-01-10T17:48:37;-2.80;99.90
21282;DHT22;10800;53.096;18.328;2024-01-10T17:53:42;-2.90;99.90
21282;DHT22;10800;53.096;18.328;2024-01-10T17:58:48;-2.90;99.90
21282;DHT22;10800;53.096;18.328;2024-01-10T18:03:54;-2.90;99.90
21282;DHT22;10800;53.096;18.328;2024-01-10T18:09:02;-2.80;99.90
21282;DHT22;10800;53.096;18.328;2024-01-10T18:14:08;-2.90;99.90
21282;DHT22;10800;53.096;18.328;2024-01-10T18:19:13;-2.90;99.90
21282;DHT22;10800;53.096;18.328;2024-01-10T18:24:19;-2.90;99.90
21282;DHT22;10800;53.096;18.328;2024-01-10T18:29:25;-2.90;99.90
21282;DHT22;10800;53.096;18.328;2024-01-10T18:34:30;-2.90;99.90
21282;DHT22;10800;53.096;18.328;2024-01-10T18:39:37;-2.90;99.90
21282;DHT22;10800;53.096;18.328;2024-01-10T18:44:43;-3.00;99.90
21282;DHT22;10800;53.096;18.328;2024-01-10T18:49:51;-2.90;99.90
21282;DHT22;10800;53.096;18.328;2024-01-10T18:55:01;-2.90;99.90
21282;DHT22;10800;53.096;18.328;2024-01-10T19:05:47;-3.00;99.90
21282;DHT22;10800;53.096;18.328;2024-01-10T19:11:01;-3.00;99.90
21282;DHT22;10800;53.096;18.328;2024-01-10T19:16:10;-2.90;99.90
21282;DHT22;10800;53.096;18.328;2024-01-10T19:21:24;-3.00;99.90
21282;DHT22;10800;53.096;18.328;2024-01-10T19:26:30;-2.90;99.90
21282;DHT22;10800;53.096;18.328;2024-01-10T19:31:37;-2.90;99.90
21282;DHT22;10800;53.096;18.328;2024-01-10T19:36:43;-2.90;99.90
21282;DHT22;10800;53.096;18.328;2024-01-10T19:41:50;-2.90;99.90
21282;DHT22;10800;53.096;18.328;2024-01-10T19:46:56;-3.00;99.90
21282;DHT22;10800;53.096;18.328;2024-01-10T19:52:08;-2.90;99.90
21282;DHT22;10800;53.096;18.328;2024-01-10T19:57:15;-3.00;99.90
21282;DHT22;10800;53.096;18.328;2024-01-10T20:02:20;-3.10;99.90
21282;DHT22;10800;53.096;18.328;2024-01-10T20:07:27;-3.10;99.90
21282;DHT22;10800;53.096;18.328;2024-01-10T20:12:33;-3.10;99.90
21282;DHT22;10800;53.096;18.328;2024-01-10T20:17:39;-3.10;99.90
21282;DHT22;10800;53.096;18.328;2024-01-10T20:22:45;-3.10;99.90
21282;DHT22;10800;53.096;18.328;2024-01-10T20:27:52;-3.10;99.90
21282;DHT22;10800;53.096;18.328;2024-01-10T20:32:57;-3.00;99.90
21282;DHT22;10800;53.096;18.328;2024-01-10T20:38:05;-3.00;99.90
21282;DHT22;10800;53.096;18.328;2024-01-10T20:43:11;-3.10;99.90
21282;DHT22;10800;53.096;18.328;2024-01-10T20:48:17;-3.10;99.90
21282;DHT22;10800;53.096;18.328;2024-01-10T20:53:22;-3.10;99.90
21282;DHT22;10800;53.096;18.328;2024-01-10T20:58:29;-3.10;99.90
21282;DHT22;10800;53.096;18.328;2024-01-10T21:03:35;-3.10;99.90
21282;DHT22;10800;53.096;18.328;2024-01-10T21:08:42;-3.10;99.90
21282;DHT22;10800;53.096;18.328;2024-01-10T21:13:49;-3.10;99.90
21282;DHT22;10800;53.096;18.328;2024-01-10T21:18:55;-3.10;99.90
21282;DHT22;10800;53.096;18.328;2024-01-10T21:24:01;-3.10;99.90
21282;DHT22;10800;53.096;18.328;2024-01-10T21:29:07;-3.10;99.90
21282;DHT22;10800;53.096;18.328;2024-01-10T21:34:13;-3.00;99.90
21282;DHT22;10800;53.096;18.328;2024-01-10T21:39:18;-3.00;99.90
21282;DHT22;10800;53.096;18.328;2024-01-10T21:44:24;-3.00;99.90
21282;DHT22;10800;53.096;18.328;2024-01-10T21:49:30;-3.00;99.90
21282;DHT22;10800;53.096;18.328;2024-01-10T21:54:36;-3.00;99.90
21282;DHT22;10800;53.096;18.328;2024-01-10T21:59:43;-2.90;99.90
21282;DHT22;10800;53.096;18.328;2024-01-10T22:04:49;-2.90;99.90
21282;DHT22;10800;53.096;18.328;2024-01-10T22:09:55;-2.90;99.90
21282;DHT22;10800;53.096;18.328;2024-01-10T22:15:01;-2.90;99.90
21282;DHT22;10800;53.096;18.328;2024-01-10T22:20:07;-2.90;99.90
21282;DHT22;10800;53.096;18.328;2024-01-10T22:25:14;-2.80;99.90
21282;DHT22;10800;53.096;18.328;2024-01-10T22:30:20;-2.90;99.90
21282;DHT22;10800;53.096;18.328;2024-01-10T22:35:26;-2.80;99.90
21282;DHT22;10800;53.096;18.328;2024-01-10T22:40:32;-2.80;99.90
21282;DHT22;10800;53.096;18.328;2024-01-10T22:45:37;-2.80;99.90
21282;DHT22;10800;53.096;18.328;2024-01-10T22:50:43;-2.80;99.90
21282;DHT22;10800;53.096;18.328;2024-01-10T22:55:49;-2.80;99.90
21282;DHT22;10800;53.096;18.328;2024-01-10T23:00:55;-2.80;99.90
21282;DHT22;10800;53.096;18.328;2024-01-10T23:06:01;-2.80;99.90
21282;DHT22;10800;53.096;18.328;2024-01-10T23:11:08;-2.80;99.90
21282;DHT22;10800;53.096;18.328;2024-01-10T23:16:14;-2.80;99.90
21282;DHT22;10800;53.096;18.328;2024-01-10T23:21:20;-2.80;99.90
21282;DHT22;10800;53.096;18.328;2024-01-10T23:26:25;-2.80;99.90
21282;DHT22;10800;53.096;18.328;2024-01-10T23:31:31;-2.80;99.90
21282;DHT22;10800;53.096;18.328;2024-01-10T23:36:36;-2.70;99.90
21282;DHT22;10800;53.096;18.328;2024-01-10T23:41:48;-2.70;99.90
21282;DHT22;10800;53.096;18.328;2024-01-10T23:46:53;-2.70;99.90
21282;DHT22;10800;53.096;18.328;2024-01-10T23:51:59;-2.70;99.90
21282;DHT22;10800;53.096;18.328;2024-01-10T23:57:07;-2.70;99.90
